createdAt,value
2019-05-06T00:00:04.761Z,72.21
2019-05-06T00:00:55.162Z,71.93
2019-05-06T00:01:25.254Z,71.64
2019-05-06T00:02:05.700Z,72.02
2019-05-06T00:02:46.021Z,72.21
2019-05-06T00:04:06.921Z,71.07
2019-05-06T00:04:47.354Z,71.26
2019-05-06T00:05:27.689Z,71.83
2019-05-06T00:06:08.078Z,72.41
2019-05-06T00:11:05.611Z,72.02
2019-05-06T00:11:45.727Z,72.5
2019-05-06T00:12:26.132Z,72.31
2019-05-06T00:13:06.565Z,71.93
2019-05-06T00:13:46.930Z,71.73
2019-05-06T00:15:07.747Z,71.73
2019-05-06T00:15:48.169Z,71.93
2019-05-06T00:16:28.551Z,71.93
2019-05-06T00:17:08.984Z,71.73
2019-05-06T00:17:49.365Z,72.02
2019-05-06T00:18:29.784Z,71.73
2019-05-06T00:19:10.164Z,70.97
2019-05-06T00:19:50.536Z,70.69
2019-05-06T00:20:30.948Z,71.83
2019-05-06T00:21:11.311Z,71.17
2019-05-06T00:21:53.861Z,71.55
2019-05-06T00:22:34.189Z,71.83
2019-05-06T00:23:14.217Z,72.12
2019-05-06T00:23:54.547Z,71.93
2019-05-06T00:24:34.741Z,71.17
2019-05-06T00:25:14.013Z,71.07
2019-05-06T00:25:54.103Z,71.17
2019-05-06T00:26:34.696Z,71.07
2019-05-06T00:27:15.100Z,71.73
2019-05-06T00:27:55.524Z,71.93
2019-05-06T00:28:35.949Z,72.21
2019-05-06T00:29:16.358Z,72.12
2019-05-06T00:29:56.767Z,71.73
2019-05-06T00:30:37.149Z,71.64
2019-05-06T00:31:17.553Z,71.55
2019-05-06T00:31:57.945Z,71.73
2019-05-06T00:32:38.366Z,71.17
2019-05-06T00:33:18.756Z,70.78
2019-05-06T00:33:59.132Z,70.78
2019-05-06T00:34:39.540Z,70.69
2019-05-06T00:35:20.776Z,70.88
2019-05-06T00:36:01.156Z,70.69
2019-05-06T00:36:43.621Z,70.78
2019-05-06T00:37:24.071Z,70.78
2019-05-06T00:38:04.458Z,70.97
2019-05-06T00:38:44.756Z,71.73
2019-05-06T00:39:24.320Z,71.07
2019-05-06T00:40:04.621Z,70.78
2019-05-06T00:40:44.461Z,70.78
2019-05-06T00:41:24.878Z,70.12
2019-05-06T00:42:05.284Z,70.02
2019-05-06T00:42:45.738Z,70.02
2019-05-06T00:43:26.311Z,70.02
2019-05-06T00:44:06.709Z,70.4
2019-05-06T00:44:47.019Z,70.5
2019-05-06T00:45:27.502Z,70.69
2019-05-06T00:46:07.885Z,70.78
2019-05-06T00:46:48.212Z,71.17
2019-05-06T00:47:28.612Z,70.69
2019-05-06T00:48:09.052Z,70.69
2019-05-06T00:48:49.435Z,70.97
2019-05-06T00:49:29.851Z,71.03
2019-05-06T00:50:10.259Z,71.17
2019-05-06T00:50:50.657Z,71.13
2019-05-06T00:51:31.072Z,71.32
2019-05-06T00:52:13.478Z,71.51
2019-05-06T00:52:53.744Z,71.93
2019-05-06T00:53:34.591Z,72.02
2019-05-06T00:54:14.274Z,71.98
2019-05-06T00:54:54.842Z,71.64
2019-05-06T00:55:34.866Z,72.02
2019-05-06T00:56:15.328Z,72.02
2019-05-06T00:56:55.692Z,71.73
2019-05-06T00:57:36.120Z,71.64
2019-05-06T00:58:56.973Z,71.83
2019-05-06T00:59:37.390Z,72.02
2019-05-06T01:00:17.805Z,71.83
2019-05-06T01:01:38.641Z,71.17
2019-05-06T01:02:19.067Z,70.5
2019-05-06T01:02:59.482Z,70.4
2019-05-06T01:03:39.898Z,70.88
2019-05-06T01:04:20.315Z,70.69
2019-05-06T01:06:18.098Z,70.59
2019-05-06T01:06:58.450Z,70.69
2019-05-06T01:07:38.868Z,71.17
2019-05-06T01:08:19.273Z,70.97
2019-05-06T01:08:59.797Z,70.69
2019-05-06T01:09:40.232Z,70.59
2019-05-06T01:10:20.639Z,70.59
2019-05-06T01:11:01.047Z,70.69
2019-05-06T01:12:23.813Z,71.55
2019-05-06T01:13:04.147Z,72.02
2019-05-06T01:13:43.784Z,72.21
2019-05-06T01:14:23.548Z,72.12
2019-05-06T01:15:03.856Z,71.64
2019-05-06T01:15:44.091Z,72.02
2019-05-06T01:16:24.927Z,72.12
2019-05-06T01:17:04.963Z,72.12
2019-05-06T01:17:45.622Z,72.21
2019-05-06T01:18:26.017Z,72.97
2019-05-06T01:19:06.418Z,72.88
2019-05-06T01:19:46.797Z,72.5
2019-05-06T01:20:27.225Z,72.5
2019-05-06T01:21:07.630Z,72.02
2019-05-06T01:21:48.054Z,72.02
2019-05-06T01:22:28.482Z,71.45
2019-05-06T01:23:08.970Z,72.02
2019-05-06T01:23:49.375Z,72.12
2019-05-06T01:24:29.806Z,72.02
2019-05-06T01:25:10.232Z,72.41
2019-05-06T01:26:31.071Z,71.45
2019-05-06T01:27:11.480Z,71.89
2019-05-06T01:27:53.826Z,72.46
2019-05-06T01:28:34.068Z,72.94
2019-05-06T01:29:14.507Z,73.32
2019-05-06T01:29:54.827Z,73.13
2019-05-06T01:30:33.809Z,73.41
2019-05-06T01:31:14.164Z,73.22
2019-05-06T01:31:54.597Z,73.13
2019-05-06T01:32:34.795Z,73.8
2019-05-06T01:33:15.200Z,73.13
2019-05-06T01:33:55.593Z,73.41
2019-05-06T01:34:36.021Z,73.99
2019-05-06T01:35:16.407Z,73.89
2019-05-06T01:35:56.826Z,74.37
2019-05-06T01:36:37.352Z,75.04
2019-05-06T01:37:17.809Z,75.04
2019-05-06T01:37:58.197Z,74.37
2019-05-06T01:38:38.596Z,74.46
2019-05-06T01:39:59.430Z,74.18
2019-05-06T01:40:39.837Z,73.41
2019-05-06T01:41:20.250Z,73.74
2019-05-06T01:42:41.091Z,73.51
2019-05-06T01:43:21.494Z,73.41
2019-05-06T01:44:04.018Z,73.22
2019-05-06T01:45:23.734Z,73.41
2019-05-06T01:46:04.674Z,73.45
2019-05-06T01:46:44.700Z,73.36
2019-05-06T01:47:24.030Z,73.07
2019-05-06T01:48:04.457Z,73.17
2019-05-06T01:48:44.865Z,73.45
2019-05-06T01:49:25.291Z,73.83
2019-05-06T01:50:05.723Z,73.45
2019-05-06T01:50:46.162Z,73.07
2019-05-06T01:51:26.550Z,73.07
2019-05-06T01:52:06.945Z,73.55
2019-05-06T01:52:47.528Z,73.36
2019-05-06T01:53:27.954Z,73.36
2019-05-06T01:54:08.371Z,73.17
2019-05-06T01:54:48.734Z,72.69
2019-05-06T01:55:29.154Z,72.88
2019-05-06T01:56:09.585Z,72.69
2019-05-06T01:56:49.940Z,72.31
2019-05-06T01:57:30.403Z,72.69
2019-05-06T01:58:10.737Z,72.25
2019-05-06T01:58:53.371Z,71.87
2019-05-06T01:59:33.446Z,71.77
2019-05-06T02:00:13.927Z,71.77
2019-05-06T02:00:54.058Z,71.39
2019-05-06T02:01:34.064Z,71.55
2019-05-06T02:02:14.274Z,71.48
2019-05-06T02:02:54.722Z,70.72
2019-05-06T02:03:34.693Z,70.72
2019-05-06T02:04:14.569Z,70.63
2019-05-06T02:04:54.935Z,71.3
2019-05-06T02:05:35.337Z,71.17
2019-05-06T02:06:15.739Z,71.58
2019-05-06T02:06:56.126Z,71.77
2019-05-06T02:07:36.536Z,71.68
2019-05-06T02:08:16.958Z,71.39
2019-05-06T02:08:57.377Z,71.39
2019-05-06T02:09:37.785Z,71.2
2019-05-06T02:10:18.194Z,70.53
2019-05-06T02:10:58.607Z,71.01
2019-05-06T02:11:39.165Z,71.2
2019-05-06T02:12:19.594Z,70.72
2019-05-06T02:13:00.019Z,70.63
2019-05-06T02:13:40.439Z,70.97
2019-05-06T02:14:20.910Z,71.07
2019-05-06T02:15:01.280Z,71.17
2019-05-06T02:15:41.705Z,71.55
2019-05-06T02:16:24.028Z,71.83
2019-05-06T02:17:03.598Z,72.31
2019-05-06T02:17:44.040Z,72.69
2019-05-06T02:18:24.316Z,72.41
2019-05-06T02:19:04.246Z,72.5
2019-05-06T02:19:44.241Z,72.5
2019-05-06T02:20:24.738Z,72.78
2019-05-06T02:21:05.564Z,72.41
2019-05-06T02:21:45.469Z,72.41
2019-05-06T02:22:25.851Z,71.93
2019-05-06T02:23:06.257Z,71.93
2019-05-06T02:23:46.642Z,72.56
2019-05-06T02:24:27.052Z,72.75
2019-05-06T02:25:07.459Z,73.22
2019-05-06T02:25:47.837Z,73.32
2019-05-06T02:26:28.268Z,73.32
2019-05-06T02:27:08.660Z,73.41
2019-05-06T02:27:49.084Z,73.51
2019-05-06T02:28:29.465Z,73.32
2019-05-06T02:29:09.900Z,74.08
2019-05-06T02:29:50.253Z,74.18
2019-05-06T02:30:30.654Z,74.56
2019-05-06T02:31:11.038Z,73.89
2019-05-06T02:31:51.481Z,73.89
2019-05-06T02:32:32.681Z,74.08
2019-05-06T02:33:15.138Z,73.22
2019-05-06T02:33:55.421Z,73.99
2019-05-06T02:34:36.332Z,73.99
2019-05-06T02:35:14.849Z,73.99
2019-05-06T02:35:54.989Z,74.46
2019-05-06T02:36:34.597Z,74.94
2019-05-06T02:37:14.974Z,74.84
2019-05-06T02:37:55.335Z,74.75
2019-05-06T02:38:46.369Z,74.37
2019-05-06T02:39:16.106Z,75.04
2019-05-06T02:39:56.534Z,74.84
2019-05-06T02:40:36.916Z,75.04
2019-05-06T02:41:17.303Z,75.32
2019-05-06T02:41:57.703Z,75.23
2019-05-06T02:42:38.143Z,75.04
2019-05-06T02:43:18.517Z,75.42
2019-05-06T02:43:58.939Z,75.04
2019-05-06T02:44:39.367Z,74.94
2019-05-06T02:45:19.769Z,75.04
2019-05-06T02:46:00.158Z,74.94
2019-05-06T02:46:43.833Z,74.94
2019-05-06T02:47:22.991Z,75.04
2019-05-06T02:49:33.782Z,75.04
2019-05-06T02:50:13.974Z,75.04
2019-05-06T02:50:54.399Z,75.13
2019-05-06T02:51:34.813Z,75.51
2019-05-06T02:52:15.214Z,76.37
2019-05-06T02:52:55.619Z,76.27
2019-05-06T02:53:36.030Z,76.65
2019-05-06T02:54:16.471Z,75.6
2019-05-06T02:54:56.877Z,75.13
2019-05-06T02:55:37.282Z,75.32
2019-05-06T02:56:17.702Z,75.04
2019-05-06T02:56:58.121Z,74.65
2019-05-06T02:57:38.527Z,74.46
2019-05-06T02:58:18.971Z,74.56
2019-05-06T02:58:59.343Z,74.46
2019-05-06T02:59:39.762Z,74.56
2019-05-06T03:00:20.160Z,74.56
2019-05-06T03:01:03.452Z,74.75
2019-05-06T03:01:43.201Z,74.94
2019-05-06T03:02:37.895Z,75.79
2019-05-06T03:03:02.843Z,76.08
2019-05-06T03:03:43.529Z,76.46
2019-05-06T03:05:04.216Z,75.79
2019-05-06T03:05:44.049Z,75.51
2019-05-06T03:06:24.066Z,75.79
2019-05-06T03:07:44.620Z,75.89
2019-05-06T03:08:25.015Z,76.27
2019-05-06T03:09:05.421Z,75.79
2019-05-06T03:10:26.224Z,75.6
2019-05-06T03:11:06.657Z,75.7
2019-05-06T03:11:47.042Z,75.79
2019-05-06T03:13:07.812Z,76.94
2019-05-06T03:13:48.240Z,76.65
2019-05-06T03:14:28.586Z,76.75
2019-05-06T03:15:09.048Z,76.18
2019-05-06T03:15:49.398Z,75.7
2019-05-06T03:16:32.983Z,76.46
2019-05-06T03:17:10.354Z,76.75
2019-05-06T03:17:50.568Z,76.75
2019-05-06T03:18:32.675Z,76.75
2019-05-06T03:19:13.246Z,76.18
2019-05-06T03:19:52.652Z,76.61
2019-05-06T03:20:32.340Z,76.9
2019-05-06T03:21:13.896Z,76.75
2019-05-06T03:21:54.604Z,76.42
2019-05-06T03:22:34.583Z,76.9
2019-05-06T03:23:14.522Z,76.23
2019-05-06T03:23:54.795Z,76.42
2019-05-06T03:24:35.195Z,76.61
2019-05-06T03:25:15.558Z,77.19
2019-05-06T03:25:55.979Z,77.66
2019-05-06T03:26:36.347Z,77.76
2019-05-06T03:27:18.414Z,77.37
2019-05-06T03:27:58.841Z,77.56
2019-05-06T03:28:39.242Z,78.33
2019-05-06T03:29:19.574Z,77.95
2019-05-06T03:30:03.784Z,77.76
2019-05-06T03:30:45.175Z,77.76
2019-05-06T03:31:25.888Z,77.85
2019-05-06T03:32:06.708Z,77.56
2019-05-06T03:33:18.636Z,77.56
2019-05-06T03:33:49.491Z,77.47
2019-05-06T03:34:24.212Z,78.33
2019-05-06T03:35:41.122Z,78.38
2019-05-06T03:36:16.240Z,78.42
2019-05-06T03:36:48.241Z,78.1
2019-05-06T03:37:26.755Z,78.29
2019-05-06T03:38:07.161Z,78.77
2019-05-06T03:38:47.610Z,79.62
2019-05-06T03:39:28.019Z,79.14
2019-05-06T03:40:08.428Z,79.14
2019-05-06T03:40:48.773Z,79.33
2019-05-06T03:41:29.201Z,80.47
2019-05-06T03:42:09.618Z,80.76
2019-05-06T03:42:50.090Z,80.1
2019-05-06T03:43:33.449Z,80.1
2019-05-06T03:44:16.016Z,79.81
2019-05-06T03:44:53.180Z,79.33
2019-05-06T03:45:33.439Z,79.43
2019-05-06T03:46:14.222Z,80.76
2019-05-06T03:46:53.881Z,80.47
2019-05-06T03:47:34.414Z,80.19
2019-05-06T03:48:13.280Z,80.29
2019-05-06T03:48:53.692Z,80.47
2019-05-06T03:49:34.058Z,80.47
2019-05-06T03:50:14.481Z,80.86
2019-05-06T03:50:55.954Z,81.71
2019-05-06T03:51:35.212Z,81.05
2019-05-06T03:52:15.651Z,81.14
2019-05-06T03:52:56.552Z,81.33
2019-05-06T03:54:16.847Z,81.52
2019-05-06T03:54:57.250Z,81.24
2019-05-06T03:55:37.699Z,81.62
2019-05-06T03:56:19.821Z,82.19
2019-05-06T03:56:58.496Z,80.86
2019-05-06T03:57:38.838Z,80.66
2019-05-06T03:58:19.247Z,81.24
2019-05-06T03:58:59.643Z,81.24
2019-05-06T03:59:40.018Z,80.66
2019-05-06T04:00:23.359Z,81.24
2019-05-06T04:01:42.888Z,81.62
2019-05-06T04:02:23.989Z,82.38
2019-05-06T04:03:03.219Z,82.28
2019-05-06T04:03:48.436Z,81.71
2019-05-06T04:04:23.474Z,80.57
2019-05-06T04:05:04.225Z,81.14
2019-05-06T04:05:44.201Z,80.86
2019-05-06T04:06:24.584Z,81.24
2019-05-06T04:07:04.990Z,81.33
2019-05-06T04:07:45.878Z,81.43
2019-05-06T04:08:25.817Z,81.43
2019-05-06T04:09:47.226Z,81.33
2019-05-06T04:10:27.664Z,81.81
2019-05-06T04:11:08.107Z,81.05
2019-05-06T04:11:48.518Z,81.05
2019-05-06T04:12:29.033Z,81.62
2019-05-06T04:13:09.371Z,81.43
2019-05-06T04:13:49.780Z,81.24
2019-05-06T04:14:32.918Z,81.14
2019-05-06T04:15:14.051Z,80.76
2019-05-06T04:15:53.927Z,81.05
2019-05-06T04:16:33.741Z,80.76
2019-05-06T04:17:13.106Z,80.95
2019-05-06T04:17:53.998Z,81.33
2019-05-06T04:18:33.601Z,80.95
2019-05-06T04:19:13.846Z,81.14
2019-05-06T04:19:54.262Z,81.33
2019-05-06T04:20:34.664Z,80.47
2019-05-06T04:21:55.619Z,80.29
2019-05-06T04:22:36.026Z,80.66
2019-05-06T04:23:16.403Z,80.76
2019-05-06T04:24:37.813Z,81.14
2019-05-06T04:25:18.149Z,81.62
2019-05-06T04:26:03.194Z,82.38
2019-05-06T04:26:45.818Z,82.09
2019-05-06T04:27:22.736Z,82.28
2019-05-06T05:06:39.353Z,85.86
2019-05-06T05:07:22.274Z,84.91
2019-05-06T05:08:02.430Z,84.14
2019-05-06T05:08:42.829Z,84.33
2019-05-06T05:10:05.853Z,85
2019-05-06T05:10:46.427Z,85.19
2019-05-06T05:11:27.302Z,85.1
2019-05-06T05:13:25.544Z,84.43
2019-05-06T05:14:05.954Z,84.72
2019-05-06T05:14:46.349Z,85.1
2019-05-06T05:15:26.738Z,85.04
2019-05-06T05:16:07.125Z,85.04
2019-05-06T05:16:47.535Z,84
2019-05-06T05:17:27.950Z,84.28
2019-05-06T05:18:15.393Z,83.81
2019-05-06T05:18:55.796Z,82.38
2019-05-06T05:19:36.176Z,81.24
2019-05-06T05:20:16.574Z,81.62
2019-05-06T05:20:57.108Z,83.42
2019-05-06T05:21:37.734Z,82.28
2019-05-06T05:22:18.143Z,82.19
2019-05-06T05:22:58.767Z,83.14
2019-05-06T05:23:39.086Z,84
2019-05-06T05:24:20.004Z,81.24
2019-05-06T05:25:03.154Z,80.38
2019-05-06T05:25:46.294Z,79.62
2019-05-06T05:26:26.387Z,80.66
2019-05-06T05:27:08.612Z,80.61
2019-05-06T05:28:31.996Z,81.05
2019-05-06T05:29:12.311Z,79.94
2019-05-06T05:29:52.159Z,79.57
2019-05-06T05:30:32.851Z,79.09
2019-05-06T05:31:13.035Z,80.71
2019-05-06T05:31:53.454Z,80.42
2019-05-06T05:32:33.738Z,79.47
2019-05-06T05:33:14.377Z,79.28
2019-05-06T05:35:18.134Z,77.95
2019-05-06T05:38:57.817Z,77.66
2019-05-06T05:39:39.813Z,78.04
2019-05-06T05:40:22.515Z,77.19
2019-05-06T05:41:03.006Z,78.23
2019-05-06T05:41:42.951Z,78.08
2019-05-06T05:42:22.972Z,77.66
2019-05-06T05:43:03.326Z,78.27
2019-05-06T05:43:43.695Z,77.47
2019-05-06T05:44:24.204Z,77.61
2019-05-06T05:45:06.095Z,76.84
2019-05-06T05:45:47.238Z,77.28
2019-05-06T05:46:28.318Z,77.09
2019-05-06T05:47:08.849Z,78.04
2019-05-06T05:47:49.258Z,78.37
2019-05-06T05:48:29.819Z,77.8
2019-05-06T05:49:11.994Z,77.7
2019-05-06T05:49:52.436Z,77.32
2019-05-06T05:50:32.472Z,77.7
2019-05-06T05:51:12.724Z,77.28
2019-05-06T05:51:53.728Z,77.37
2019-05-06T05:52:34.082Z,77.22
2019-05-06T05:56:52.874Z,78.33
2019-05-06T05:57:32.988Z,77.56
2019-05-06T05:58:13.324Z,77.56
2019-05-06T05:58:53.831Z,78.04
2019-05-06T05:59:34.260Z,77.56
2019-05-06T06:00:17.784Z,76.81
2019-05-06T06:00:59.072Z,77.95
2019-05-06T06:01:43.271Z,79.03
2019-05-06T06:02:22.578Z,78.08
2019-05-06T06:03:07.285Z,77.8
2019-05-06T06:03:48.528Z,77.42
2019-05-06T06:04:32.121Z,76.94
2019-05-06T06:05:12.391Z,77.51
2019-05-06T06:05:52.449Z,76.56
2019-05-06T06:06:33.510Z,76.18
2019-05-06T06:07:15.059Z,75.79
2019-05-06T06:07:55.443Z,75.42
2019-05-06T06:08:39.619Z,76.18
2019-05-06T06:09:19.556Z,76.27
2019-05-06T06:10:02.639Z,76.84
2019-05-06T06:10:44.024Z,77.7
2019-05-06T06:11:24.690Z,76.94
2019-05-06T06:12:47.689Z,76.08
2019-05-06T06:13:29.540Z,75.04
2019-05-06T06:14:12.632Z,75.7
2019-05-06T06:14:55.120Z,75.79
2019-05-06T06:15:32.872Z,75.89
2019-05-06T06:16:13.082Z,74.94
2019-05-06T06:16:53.494Z,74.75
2019-05-06T06:17:34.599Z,74.98
2019-05-06T06:27:12.665Z,70.95
2019-05-06T06:27:55.706Z,70.86
2019-05-06T06:28:37.443Z,70.09
2019-05-06T06:29:18.095Z,69.9
2019-05-06T06:29:59.119Z,70.09
2019-05-06T06:30:42.371Z,68.88
2019-05-06T06:31:22.968Z,68.41
2019-05-06T06:32:03.548Z,67.65
2019-05-06T06:32:44.062Z,67.46
2019-05-06T06:35:11.294Z,66.88
2019-05-06T06:35:53.125Z,67.61
2019-05-06T06:36:34.405Z,67.33
2019-05-06T06:37:14.547Z,66.94
2019-05-06T06:37:55.339Z,67.61
2019-05-06T06:38:39.003Z,67.99
2019-05-06T06:39:19.774Z,68.28
2019-05-06T06:39:59.451Z,68.18
2019-05-06T06:40:39.942Z,67.17
2019-05-06T06:41:32.283Z,67.17
2019-05-06T06:42:12.712Z,67.74
2019-05-06T06:42:52.880Z,67.93
2019-05-06T06:43:33.423Z,67.65
2019-05-06T06:44:14.006Z,67.17
2019-05-06T06:44:54.688Z,66.31
2019-05-06T06:45:35.093Z,65.45
2019-05-06T06:46:16.695Z,64.78
2019-05-06T06:46:58.282Z,64.91
2019-05-06T06:47:39.170Z,64.72
2019-05-06T06:48:19.283Z,64.78
2019-05-06T06:49:00.309Z,64.88
2019-05-06T06:49:39.767Z,63.64
2019-05-06T06:50:21.929Z,63.73
2019-05-06T06:51:03.161Z,64.97
2019-05-06T06:52:23.000Z,65.26
2019-05-06T06:54:26.221Z,64.97
2019-05-06T08:52:32.331Z,57.87
2019-05-06T08:53:13.799Z,58.83
2019-05-06T08:53:53.413Z,58.26
2019-05-06T08:54:33.335Z,58.45
2019-05-06T08:55:13.824Z,59.31
2019-05-06T08:56:09.155Z,59.69
2019-05-06T08:56:49.561Z,57.97
2019-05-06T08:57:32.391Z,56.06
2019-05-06T08:58:11.154Z,55.11
2019-05-06T08:58:52.745Z,55.58
2019-05-06T08:59:32.234Z,55.2
2019-05-06T09:00:12.789Z,56.73
2019-05-06T09:00:53.793Z,57.5
2019-05-06T09:01:35.565Z,57.31
2019-05-06T09:02:17.367Z,56.82
2019-05-06T09:02:58.460Z,58.16
2019-05-06T09:03:42.238Z,58.07
2019-05-06T09:04:22.753Z,57.43
2019-05-06T09:05:02.860Z,58.38
2019-05-06T09:05:42.613Z,59.05
2019-05-06T09:10:13.120Z,57.46
2019-05-06T09:13:32.629Z,56.6
2019-05-06T09:14:13.604Z,55.74
2019-05-06T09:14:53.298Z,55.07
2019-05-06T09:16:15.198Z,55.16
2019-05-06T09:16:55.702Z,56.02
2019-05-06T09:17:36.082Z,56.98
2019-05-06T09:18:24.274Z,54.97
2019-05-06T09:19:04.805Z,53.92
2019-05-06T09:19:45.451Z,54.61
2019-05-06T09:20:26.199Z,55.29
2019-05-06T09:21:09.107Z,56.53
2019-05-06T09:21:49.412Z,56.43
2019-05-06T09:22:32.424Z,55.41
2019-05-06T09:23:12.395Z,55.31
2019-05-06T09:23:53.060Z,55.51
2019-05-06T09:24:32.309Z,53.91
2019-05-06T09:25:12.894Z,53.33
2019-05-06T09:25:53.340Z,53.04
2019-05-06T09:28:09.729Z,53.36
2019-05-06T09:28:52.938Z,52.01
2019-05-06T09:29:32.790Z,51.63
2019-05-06T09:30:15.439Z,50.87
2019-05-06T09:30:58.671Z,50.46
2019-05-06T09:31:38.409Z,51.13
2019-05-06T09:33:39.852Z,53.04
2019-05-06T09:34:20.329Z,53.52
2019-05-06T09:35:02.868Z,54.57
2019-05-06T09:35:42.159Z,52.95
2019-05-06T09:36:22.856Z,52.3
2019-05-06T09:38:12.408Z,51.73
2019-05-06T09:38:52.986Z,52.01
2019-05-06T09:39:34.163Z,52.97
2019-05-06T09:40:14.367Z,52.11
2019-05-06T09:42:04.344Z,52.14
2019-05-06T09:42:44.122Z,50.79
2019-05-06T09:43:26.934Z,50.41
2019-05-06T09:44:08.218Z,50.22
2019-05-06T09:44:50.548Z,49.93
2019-05-06T09:45:30.062Z,48.59
2019-05-06T09:46:12.865Z,50.32
2019-05-06T09:46:53.447Z,49.84
2019-05-06T09:52:36.919Z,48.59
2019-05-06T09:55:23.487Z,47.44
2019-05-06T09:56:07.594Z,46.96
2019-05-06T09:56:56.689Z,46.77
2019-05-06T09:57:39.271Z,48.4
2019-05-06T09:58:22.821Z,47.34
2019-05-06T09:59:07.506Z,48.11
2019-05-06T09:59:48.514Z,49.07
2019-05-06T10:00:29.745Z,47.73
2019-05-06T10:01:12.934Z,47.63
2019-05-06T10:01:52.760Z,47.82
2019-05-06T10:03:52.960Z,47.82
2019-05-06T10:04:33.483Z,48.69
2019-05-06T10:05:13.924Z,48.59
2019-05-06T10:06:03.762Z,48.11
2019-05-06T10:08:03.071Z,47.73
2019-05-06T10:08:43.980Z,47.63
2019-05-06T10:09:27.279Z,48.21
2019-05-06T10:10:07.817Z,48.02
2019-05-06T10:10:56.648Z,47.44
2019-05-06T10:11:33.377Z,47.71
2019-05-06T10:12:14.454Z,47.51
2019-05-06T10:12:55.818Z,47.71
2019-05-06T10:13:37.952Z,47.8
2019-05-06T10:14:25.950Z,48.09
2019-05-06T10:15:08.262Z,48.57
2019-05-06T10:15:52.118Z,48.95
2019-05-06T10:16:34.173Z,48.07
2019-05-06T10:17:14.751Z,48.54
2019-05-06T10:18:06.181Z,49.6
2019-05-06T10:18:49.498Z,49.69
2019-05-06T10:20:47.469Z,50.07
2019-05-06T10:21:27.721Z,49.5
2019-05-06T10:22:08.309Z,50.17
2019-05-06T10:22:48.726Z,50.36
2019-05-06T10:23:32.715Z,51.13
2019-05-06T10:24:12.662Z,50.65
2019-05-06T10:24:53.058Z,50.17
2019-05-06T10:25:33.613Z,50.36
2019-05-06T10:26:13.992Z,50.52
2019-05-06T10:26:54.421Z,51.22
2019-05-06T10:27:38.748Z,50.93
2019-05-06T10:28:19.442Z,50.34
2019-05-06T11:08:05.718Z,49
2019-05-06T11:08:46.093Z,49
2019-05-06T11:09:27.426Z,48.9
2019-05-06T11:10:21.384Z,48.04
2019-05-06T11:10:55.027Z,48.9
2019-05-06T11:11:42.944Z,48.9
2019-05-06T11:12:23.404Z,48.42
2019-05-06T11:13:05.893Z,49
2019-05-06T11:15:03.742Z,49.57
2019-05-06T11:15:49.650Z,47.94
2019-05-06T11:16:34.844Z,47.27
2019-05-06T11:17:22.707Z,49
2019-05-06T11:18:04.701Z,49
2019-05-06T11:18:42.936Z,48.04
2019-05-06T11:19:25.291Z,47.85
2019-05-06T11:20:06.539Z,48.61
2019-05-06T11:20:46.493Z,47.78
2019-05-06T11:21:27.076Z,47.08
2019-05-06T11:22:07.491Z,46.41
2019-05-06T11:22:52.810Z,46.61
2019-05-06T11:25:14.289Z,46.61
2019-05-06T11:25:58.758Z,47.56
2019-05-06T11:26:43.187Z,46.61
2019-05-06T11:28:09.137Z,47.37
2019-05-06T11:28:52.007Z,47.75
2019-05-06T11:29:33.859Z,46.98
2019-05-06T11:30:13.110Z,47.75
2019-05-06T11:30:55.707Z,47.75
2019-05-06T11:31:37.819Z,46.91
2019-05-06T11:32:21.060Z,47.18
2019-05-06T11:33:05.593Z,46.98
2019-05-06T11:34:04.510Z,48.42
2019-05-06T11:34:52.578Z,46.61
2019-05-06T11:37:14.919Z,47.08
2019-05-06T11:37:55.607Z,47.18
2019-05-06T11:38:43.042Z,47.56
2019-05-06T11:40:26.943Z,47.18
2019-05-06T11:41:19.547Z,47.47
2019-05-06T11:42:24.806Z,48.13
2019-05-06T11:42:48.763Z,47.85
2019-05-06T11:43:29.505Z,47.94
2019-05-06T11:44:12.513Z,48.04
2019-05-06T11:44:57.261Z,48.42
2019-05-06T11:45:42.710Z,48.13
2019-05-06T11:46:22.827Z,46.8
2019-05-06T11:47:03.571Z,47.85
2019-05-06T11:47:45.497Z,48.61
2019-05-06T11:48:27.695Z,48.61
2019-05-06T11:49:08.433Z,48.9
2019-05-06T11:49:48.964Z,48.04
2019-05-06T11:50:33.789Z,48.21
2019-05-06T11:51:22.905Z,48.49
2019-05-06T11:52:02.735Z,48.59
2019-05-06T11:52:48.755Z,48.97
2019-05-06T11:53:29.160Z,48.88
2019-05-06T11:54:17.360Z,49.35
2019-05-06T11:54:52.891Z,49.84
2019-05-06T11:55:39.339Z,49.26
2019-05-06T11:56:23.735Z,50.41
2019-05-06T11:57:04.153Z,50.02
2019-05-06T11:57:47.040Z,49.9
2019-05-06T11:58:27.218Z,50.67
2019-05-06T11:59:12.923Z,51.05
2019-05-06T11:59:52.999Z,50.76
2019-05-06T12:00:35.824Z,50.86
2019-05-06T12:01:14.654Z,50.95
2019-05-06T12:02:02.678Z,52.1
2019-05-06T12:02:53.292Z,51.62
2019-05-06T12:03:34.831Z,52.29
2019-05-06T12:04:15.244Z,51.24
2019-05-06T12:04:57.973Z,51.62
2019-05-06T12:06:23.263Z,52.32
2019-05-06T12:07:14.741Z,52.77
2019-05-06T12:08:01.681Z,52.1
2019-05-06T12:08:33.684Z,51.91
2019-05-06T12:09:16.921Z,52.1
2019-05-06T12:09:55.363Z,52.2
2019-05-06T12:10:39.689Z,52.58
2019-05-06T12:11:23.621Z,52.39
2019-05-06T12:12:06.349Z,52.58
2019-05-06T12:12:47.081Z,52.1
2019-05-06T12:13:33.517Z,51.81
2019-05-06T12:14:13.444Z,51.05
2019-05-06T12:14:55.761Z,50
2019-05-06T12:15:36.362Z,50.57
2019-05-06T12:16:17.872Z,50.19
2019-05-06T12:17:02.186Z,50.16
2019-05-06T12:17:42.222Z,50.16
2019-05-06T12:18:26.728Z,51.53
2019-05-06T12:19:09.112Z,51.72
2019-05-06T12:19:49.752Z,51.24
2019-05-06T12:20:32.962Z,52.2
2019-05-06T12:21:18.767Z,52.1
2019-05-06T12:21:56.050Z,52.39
2019-05-06T12:22:39.048Z,51.15
2019-05-06T12:23:24.924Z,50.95
2019-05-06T12:24:06.915Z,51.05
2019-05-06T12:24:52.465Z,50.67
2019-05-06T12:25:34.235Z,50.19
2019-05-06T12:26:16.356Z,49.33
2019-05-06T12:26:59.443Z,50.38
2019-05-06T12:27:39.873Z,50.95
2019-05-06T12:28:20.685Z,49.33
2019-05-06T12:29:05.135Z,50.67
2019-05-06T12:29:47.964Z,49.04
2019-05-06T12:30:32.342Z,48.75
2019-05-06T12:31:13.262Z,48.83
2019-05-06T12:32:34.397Z,51.12
2019-05-06T12:33:15.805Z,51.12
2019-05-06T12:33:57.420Z,49.69
2019-05-06T12:34:40.265Z,50.16
2019-05-06T12:36:04.240Z,50.45
2019-05-06T12:36:46.204Z,50.07
2019-05-06T12:37:28.665Z,50.45
2019-05-06T12:38:22.949Z,50.74
2019-05-06T12:38:52.424Z,50.86
2019-05-06T12:39:32.928Z,50.64
2019-05-06T12:40:12.769Z,49.98
2019-05-06T12:40:55.813Z,51.03
2019-05-06T12:41:36.312Z,51.12
2019-05-06T12:42:16.764Z,50.74
2019-05-06T12:42:57.238Z,51.7
2019-05-06T12:43:39.688Z,51.91
2019-05-06T12:45:03.502Z,51.15
2019-05-06T12:45:44.000Z,50.86
2019-05-06T12:46:24.780Z,51.24
2019-05-06T12:47:08.202Z,50.67
2019-05-06T12:47:49.917Z,51.72
2019-05-06T12:48:38.890Z,51.15
2019-05-06T12:49:19.848Z,50.86
2019-05-06T12:50:05.585Z,50.76
2019-05-06T12:50:48.717Z,52.1
2019-05-06T12:51:28.666Z,50.86
2019-05-06T12:52:15.713Z,50.57
2019-05-06T12:52:59.829Z,51.15
2019-05-06T12:53:42.744Z,51.62
2019-05-06T12:54:24.206Z,51.81
2019-05-06T12:55:16.680Z,50.48
2019-05-06T12:55:45.325Z,50.41
2019-05-06T12:56:26.229Z,50.79
2019-05-06T12:57:06.887Z,50.02
2019-05-06T12:57:52.994Z,50.31
2019-05-06T12:58:35.700Z,50.02
2019-05-06T12:59:18.320Z,49.64
2019-05-06T13:00:04.315Z,49.8
2019-05-06T13:00:47.484Z,50.09
2019-05-06T13:01:33.406Z,49.43
2019-05-06T13:02:15.706Z,50.09
2019-05-06T13:03:39.317Z,50.09
2019-05-06T13:04:39.816Z,49.8
2019-05-06T13:05:04.582Z,51.34
2019-05-06T13:05:48.246Z,50.41
2019-05-06T13:06:33.768Z,49.04
2019-05-06T13:07:19.725Z,49.14
2019-05-06T13:08:05.836Z,50.19
2019-05-06T13:08:56.371Z,51.05
2019-05-06T13:09:28.956Z,51.15
2019-05-06T13:10:08.309Z,50.79
2019-05-06T13:10:48.822Z,50.21
2019-05-06T13:11:32.863Z,50.12
2019-05-06T13:12:14.829Z,49.84
2019-05-06T13:12:58.744Z,49.55
2019-05-06T13:13:53.883Z,49.55
2019-05-06T13:14:22.338Z,49.74
2019-05-06T13:15:08.091Z,49.84
2019-05-06T13:15:52.731Z,50.02
2019-05-06T13:16:34.680Z,48.9
2019-05-06T13:17:18.200Z,49.57
2019-05-06T13:18:06.336Z,48.42
2019-05-06T13:18:46.899Z,49.29
2019-05-06T13:19:35.322Z,47.94
2019-05-06T13:20:17.052Z,48.8
2019-05-06T13:20:59.927Z,49
2019-05-06T13:21:48.787Z,49.21
2019-05-06T13:22:33.933Z,49.02
2019-05-06T13:23:22.050Z,48.93
2019-05-06T13:24:04.544Z,48.44
2019-05-06T13:24:44.797Z,48.25
2019-05-06T13:25:28.822Z,47.58
2019-05-06T13:26:15.929Z,46.62